sensor_id;sensor_type;location;lat;lon;timestamp;P1;durP1;ratioP1;P2;durP2;ratioP2
35056;SDS011;21241;51.828;19.574;2022-11-06T00:01:39;27.50;;;23.60;;
35056;SDS011;21241;51.828;19.574;2022-11-06T00:04:07;27.30;;;22.80;;
35056;SDS011;21241;51.828;19.574;2022-11-06T00:06:35;28.50;;;21.80;;
35056;SDS011;21241;51.828;19.574;2022-11-06T00:09:18;29.80;;;22.50;;
35056;SDS011;21241;51.828;19.574;2022-11-06T00:11:47;28.70;;;23.00;;
35056;SDS011;21241;51.828;19.574;2022-11-06T00:14:15;27.40;;;21.80;;
35056;SDS011;21241;51.828;19.574;2022-11-06T00:16:44;28.80;;;21.40;;
35056;SDS011;21241;51.828;19.574;2022-11-06T00:19:13;26.40;;;21.10;;
35056;SDS011;21241;51.828;19.574;2022-11-06T00:21:41;27.00;;;21.10;;
35056;SDS011;21241;51.828;19.574;2022-11-06T00:24:10;25.10;;;20.70;;
35056;SDS011;21241;51.828;19.574;2022-11-06T00:26:40;25.90;;;21.80;;
35056;SDS011;21241;51.828;19.574;2022-11-06T00:29:12;22.80;;;19.50;;
35056;SDS011;21241;51.828;19.574;2022-11-06T00:31:40;26.70;;;20.70;;
35056;SDS011;21241;51.828;19.574;2022-11-06T00:34:09;23.70;;;20.60;;
35056;SDS011;21241;51.828;19.574;2022-11-06T00:36:37;25.90;;;20.40;;
35056;SDS011;21241;51.828;19.574;2022-11-06T00:39:05;26.20;;;20.80;;
35056;SDS011;21241;51.828;19.574;2022-11-06T00:41:32;23.80;;;19.80;;
35056;SDS011;21241;51.828;19.574;2022-11-06T00:44:00;24.50;;;19.90;;
35056;SDS011;21241;51.828;19.574;2022-11-06T00:46:28;26.00;;;20.20;;
35056;SDS011;21241;51.828;19.574;2022-11-06T00:48:56;24.40;;;20.60;;
35056;SDS011;21241;51.828;19.574;2022-11-06T00:51:25;28.50;;;20.80;;
35056;SDS011;21241;51.828;19.574;2022-11-06T00:53:56;24.60;;;21.30;;
35056;SDS011;21241;51.828;19.574;2022-11-06T00:56:26;24.10;;;20.70;;
35056;SDS011;21241;51.828;19.574;2022-11-06T00:58:54;28.10;;;21.50;;
35056;SDS011;21241;51.828;19.574;2022-11-06T01:01:26;24.50;;;21.50;;
35056;SDS011;21241;51.828;19.574;2022-11-06T01:03:59;26.20;;;20.40;;
35056;SDS011;21241;51.828;19.574;2022-11-06T01:06:33;25.20;;;20.20;;
35056;SDS011;21241;51.828;19.574;2022-11-06T01:09:02;24.60;;;20.80;;
35056;SDS011;21241;51.828;19.574;2022-11-06T01:11:31;25.80;;;20.10;;
35056;SDS011;21241;51.828;19.574;2022-11-06T01:14:20;22.60;;;20.10;;
35056;SDS011;21241;51.828;19.574;2022-11-06T01:16:49;25.40;;;21.20;;
35056;SDS011;21241;51.828;19.574;2022-11-06T01:19:17;26.50;;;19.40;;
35056;SDS011;21241;51.828;19.574;2022-11-06T01:21:47;26.30;;;20.90;;
35056;SDS011;21241;51.828;19.574;2022-11-06T01:24:20;27.80;;;20.40;;
35056;SDS011;21241;51.828;19.574;2022-11-06T01:26:53;24.00;;;20.30;;
35056;SDS011;21241;51.828;19.574;2022-11-06T01:29:42;22.40;;;19.90;;
35056;SDS011;21241;51.828;19.574;2022-11-06T01:32:10;25.50;;;20.90;;
35056;SDS011;21241;51.828;19.574;2022-11-06T01:34:38;27.50;;;21.10;;
35056;SDS011;21241;51.828;19.574;2022-11-06T01:37:06;25.80;;;19.90;;
35056;SDS011;21241;51.828;19.574;2022-11-06T01:39:41;25.20;;;20.10;;
35056;SDS011;21241;51.828;19.574;2022-11-06T01:42:09;27.40;;;19.90;;
35056;SDS011;21241;51.828;19.574;2022-11-06T01:47:19;26.60;;;20.50;;
35056;SDS011;21241;51.828;19.574;2022-11-06T01:49:59;27.70;;;19.70;;
35056;SDS011;21241;51.828;19.574;2022-11-06T01:52:29;26.70;;;21.20;;
35056;SDS011;21241;51.828;19.574;2022-11-06T01:55:02;29.10;;;20.70;;
35056;SDS011;21241;51.828;19.574;2022-11-06T01:57:34;30.30;;;21.00;;
35056;SDS011;21241;51.828;19.574;2022-11-06T02:00:03;27.90;;;20.70;;
35056;SDS011;21241;51.828;19.574;2022-11-06T02:02:31;27.70;;;20.90;;
35056;SDS011;21241;51.828;19.574;2022-11-06T02:04:59;27.20;;;19.70;;
35056;SDS011;21241;51.828;19.574;2022-11-06T02:07:27;26.30;;;20.10;;
35056;SDS011;21241;51.828;19.574;2022-11-06T02:09:55;28.90;;;19.00;;
35056;SDS011;21241;51.828;19.574;2022-11-06T02:12:32;24.10;;;18.90;;
35056;SDS011;21241;51.828;19.574;2022-11-06T02:21:13;25.30;;;19.90;;
35056;SDS011;21241;51.828;19.574;2022-11-06T02:29:25;22.10;;;18.60;;
35056;SDS011;21241;51.828;19.574;2022-11-06T02:31:58;23.60;;;17.80;;
35056;SDS011;21241;51.828;19.574;2022-11-06T02:34:33;21.20;;;17.00;;
35056;SDS011;21241;51.828;19.574;2022-11-06T02:37:03;29.30;;;18.10;;
35056;SDS011;21241;51.828;19.574;2022-11-06T02:39:34;25.50;;;18.30;;
35056;SDS011;21241;51.828;19.574;2022-11-06T02:42:02;27.00;;;19.90;;
35056;SDS011;21241;51.828;19.574;2022-11-06T02:44:32;23.60;;;18.80;;
35056;SDS011;21241;51.828;19.574;2022-11-06T02:47:02;26.30;;;19.80;;
35056;SDS011;21241;51.828;19.574;2022-11-06T02:52:36;24.70;;;20.30;;
35056;SDS011;21241;51.828;19.574;2022-11-06T02:55:11;24.80;;;19.90;;
35056;SDS011;21241;51.828;19.574;2022-11-06T02:57:51;26.00;;;20.30;;
35056;SDS011;21241;51.828;19.574;2022-11-06T03:00:22;27.60;;;22.00;;
35056;SDS011;21241;51.828;19.574;2022-11-06T03:02:53;27.00;;;22.10;;
35056;SDS011;21241;51.828;19.574;2022-11-06T03:05:35;27.10;;;21.30;;
35056;SDS011;21241;51.828;19.574;2022-11-06T03:10:46;23.20;;;20.50;;
35056;SDS011;21241;51.828;19.574;2022-11-06T03:13:20;27.30;;;21.80;;
35056;SDS011;21241;51.828;19.574;2022-11-06T03:16:04;22.90;;;20.50;;
35056;SDS011;21241;51.828;19.574;2022-11-06T03:18:40;25.50;;;20.80;;
35056;SDS011;21241;51.828;19.574;2022-11-06T03:21:15;27.40;;;21.00;;
35056;SDS011;21241;51.828;19.574;2022-11-06T03:23:51;23.60;;;20.30;;
35056;SDS011;21241;51.828;19.574;2022-11-06T03:26:32;28.60;;;21.30;;
35056;SDS011;21241;51.828;19.574;2022-11-06T03:31:46;24.80;;;21.10;;
35056;SDS011;21241;51.828;19.574;2022-11-06T03:34:27;24.90;;;20.60;;
35056;SDS011;21241;51.828;19.574;2022-11-06T03:37:00;26.50;;;21.20;;
35056;SDS011;21241;51.828;19.574;2022-11-06T03:39:31;26.40;;;19.80;;
35056;SDS011;21241;51.828;19.574;2022-11-06T03:44:32;26.90;;;20.30;;
35056;SDS011;21241;51.828;19.574;2022-11-06T03:47:15;26.30;;;20.80;;
35056;SDS011;21241;51.828;19.574;2022-11-06T03:49:49;24.80;;;20.50;;
35056;SDS011;21241;51.828;19.574;2022-11-06T03:52:26;22.70;;;19.40;;
35056;SDS011;21241;51.828;19.574;2022-11-06T03:55:10;23.50;;;19.60;;
35056;SDS011;21241;51.828;19.574;2022-11-06T04:00:17;22.70;;;19.60;;
35056;SDS011;21241;51.828;19.574;2022-11-06T04:02:47;23.70;;;19.70;;
35056;SDS011;21241;51.828;19.574;2022-11-06T04:05:20;21.40;;;18.50;;
35056;SDS011;21241;51.828;19.574;2022-11-06T04:07:49;21.60;;;17.60;;
35056;SDS011;21241;51.828;19.574;2022-11-06T04:10:39;23.00;;;18.90;;
35056;SDS011;21241;51.828;19.574;2022-11-06T04:13:29;24.60;;;20.80;;
35056;SDS011;21241;51.828;19.574;2022-11-06T04:16:16;23.10;;;20.70;;
35056;SDS011;21241;51.828;19.574;2022-11-06T04:18:44;24.50;;;19.10;;
35056;SDS011;21241;51.828;19.574;2022-11-06T04:21:18;21.20;;;18.80;;
35056;SDS011;21241;51.828;19.574;2022-11-06T04:23:56;21.80;;;19.40;;
35056;SDS011;21241;51.828;19.574;2022-11-06T04:26:51;20.70;;;18.50;;
35056;SDS011;21241;51.828;19.574;2022-11-06T04:35:13;25.20;;;21.60;;
35056;SDS011;21241;51.828;19.574;2022-11-06T04:43:45;26.70;;;23.80;;
35056;SDS011;21241;51.828;19.574;2022-11-06T04:46:19;26.00;;;23.20;;
35056;SDS011;21241;51.828;19.574;2022-11-06T04:48:49;27.20;;;24.10;;
35056;SDS011;21241;51.828;19.574;2022-11-06T04:51:18;27.70;;;22.50;;
35056;SDS011;21241;51.828;19.574;2022-11-06T04:53:48;28.10;;;24.40;;
35056;SDS011;21241;51.828;19.574;2022-11-06T04:56:31;27.70;;;24.70;;
35056;SDS011;21241;51.828;19.574;2022-11-06T04:59:03;26.80;;;24.00;;
35056;SDS011;21241;51.828;19.574;2022-11-06T05:01:31;26.80;;;24.20;;
35056;SDS011;21241;51.828;19.574;2022-11-06T05:04:00;26.40;;;23.60;;
35056;SDS011;21241;51.828;19.574;2022-11-06T05:06:27;28.70;;;25.00;;
35056;SDS011;21241;51.828;19.574;2022-11-06T05:08:56;28.20;;;25.20;;
35056;SDS011;21241;51.828;19.574;2022-11-06T05:11:25;28.20;;;25.20;;
35056;SDS011;21241;51.828;19.574;2022-11-06T05:13:53;28.60;;;25.70;;
35056;SDS011;21241;51.828;19.574;2022-11-06T05:16:21;26.70;;;23.80;;
35056;SDS011;21241;51.828;19.574;2022-11-06T05:18:48;22.20;;;20.00;;
35056;SDS011;21241;51.828;19.574;2022-11-06T05:21:16;19.80;;;18.10;;
35056;SDS011;21241;51.828;19.574;2022-11-06T05:24:02;21.50;;;19.30;;
35056;SDS011;21241;51.828;19.574;2022-11-06T05:26:30;19.20;;;17.20;;
35056;SDS011;21241;51.828;19.574;2022-11-06T05:28:58;19.20;;;17.50;;
35056;SDS011;21241;51.828;19.574;2022-11-06T05:31:26;20.70;;;18.80;;
35056;SDS011;21241;51.828;19.574;2022-11-06T05:33:54;23.00;;;20.90;;
35056;SDS011;21241;51.828;19.574;2022-11-06T05:36:21;22.80;;;20.50;;
35056;SDS011;21241;51.828;19.574;2022-11-06T05:38:49;23.30;;;20.50;;
35056;SDS011;21241;51.828;19.574;2022-11-06T05:41:17;23.00;;;20.70;;
35056;SDS011;21241;51.828;19.574;2022-11-06T05:43:45;24.00;;;21.60;;
35056;SDS011;21241;51.828;19.574;2022-11-06T05:46:12;22.70;;;20.50;;
35056;SDS011;21241;51.828;19.574;2022-11-06T05:49:00;24.50;;;22.00;;
35056;SDS011;21241;51.828;19.574;2022-11-06T05:51:27;24.70;;;22.30;;
35056;SDS011;21241;51.828;19.574;2022-11-06T05:53:55;25.60;;;22.90;;
35056;SDS011;21241;51.828;19.574;2022-11-06T05:56:23;24.40;;;21.50;;
35056;SDS011;21241;51.828;19.574;2022-11-06T05:58:50;25.10;;;22.60;;
35056;SDS011;21241;51.828;19.574;2022-11-06T06:01:18;26.70;;;24.20;;
35056;SDS011;21241;51.828;19.574;2022-11-06T06:03:46;28.20;;;25.20;;
35056;SDS011;21241;51.828;19.574;2022-11-06T06:06:13;33.10;;;26.60;;
35056;SDS011;21241;51.828;19.574;2022-11-06T06:08:41;32.60;;;27.20;;
35056;SDS011;21241;51.828;19.574;2022-11-06T06:11:08;33.40;;;29.60;;
35056;SDS011;21241;51.828;19.574;2022-11-06T06:13:36;34.70;;;30.00;;
35056;SDS011;21241;51.828;19.574;2022-11-06T06:16:04;36.30;;;28.70;;
35056;SDS011;21241;51.828;19.574;2022-11-06T06:18:32;32.30;;;28.80;;
35056;SDS011;21241;51.828;19.574;2022-11-06T06:20:59;34.00;;;29.70;;
35056;SDS011;21241;51.828;19.574;2022-11-06T06:23:27;32.90;;;29.40;;
35056;SDS011;21241;51.828;19.574;2022-11-06T06:25:55;30.50;;;27.30;;
35056;SDS011;21241;51.828;19.574;2022-11-06T06:28:23;29.30;;;26.20;;
35056;SDS011;21241;51.828;19.574;2022-11-06T06:30:50;31.20;;;27.50;;
35056;SDS011;21241;51.828;19.574;2022-11-06T06:33:24;30.90;;;27.60;;
35056;SDS011;21241;51.828;19.574;2022-11-06T06:35:52;29.70;;;26.60;;
35056;SDS011;21241;51.828;19.574;2022-11-06T06:38:20;31.20;;;27.80;;
35056;SDS011;21241;51.828;19.574;2022-11-06T06:40:47;34.00;;;26.60;;
35056;SDS011;21241;51.828;19.574;2022-11-06T06:43:15;28.10;;;25.10;;
35056;SDS011;21241;51.828;19.574;2022-11-06T06:45:43;27.90;;;24.20;;
35056;SDS011;21241;51.828;19.574;2022-11-06T06:48:10;27.00;;;23.60;;
35056;SDS011;21241;51.828;19.574;2022-11-06T06:50:39;29.10;;;24.80;;
35056;SDS011;21241;51.828;19.574;2022-11-06T06:53:06;29.80;;;26.60;;
35056;SDS011;21241;51.828;19.574;2022-11-06T06:55:34;33.10;;;29.70;;
35056;SDS011;21241;51.828;19.574;2022-11-06T06:58:02;29.00;;;25.90;;
35056;SDS011;21241;51.828;19.574;2022-11-06T07:00:29;29.70;;;26.70;;
35056;SDS011;21241;51.828;19.574;2022-11-06T07:02:57;28.80;;;26.00;;
35056;SDS011;21241;51.828;19.574;2022-11-06T07:05:24;27.90;;;24.90;;
35056;SDS011;21241;51.828;19.574;2022-11-06T07:07:52;27.50;;;24.60;;
35056;SDS011;21241;51.828;19.574;2022-11-06T07:10:20;26.90;;;24.20;;
35056;SDS011;21241;51.828;19.574;2022-11-06T07:12:47;27.00;;;24.40;;
35056;SDS011;21241;51.828;19.574;2022-11-06T07:15:15;27.40;;;24.60;;
35056;SDS011;21241;51.828;19.574;2022-11-06T07:17:43;27.60;;;24.80;;
35056;SDS011;21241;51.828;19.574;2022-11-06T07:20:10;27.60;;;24.80;;
35056;SDS011;21241;51.828;19.574;2022-11-06T07:22:38;29.10;;;25.10;;
35056;SDS011;21241;51.828;19.574;2022-11-06T07:25:06;28.90;;;24.30;;
35056;SDS011;21241;51.828;19.574;2022-11-06T07:27:34;31.50;;;26.00;;
35056;SDS011;21241;51.828;19.574;2022-11-06T07:30:02;27.20;;;24.50;;
35056;SDS011;21241;51.828;19.574;2022-11-06T07:32:30;27.20;;;24.50;;
35056;SDS011;21241;51.828;19.574;2022-11-06T07:34:58;28.20;;;25.30;;
35056;SDS011;21241;51.828;19.574;2022-11-06T07:37:26;26.50;;;23.90;;
35056;SDS011;21241;51.828;19.574;2022-11-06T07:39:53;25.10;;;22.20;;
35056;SDS011;21241;51.828;19.574;2022-11-06T07:42:21;25.70;;;23.20;;
35056;SDS011;21241;51.828;19.574;2022-11-06T07:44:56;25.30;;;22.80;;
35056;SDS011;21241;51.828;19.574;2022-11-06T07:47:24;25.30;;;22.00;;
35056;SDS011;21241;51.828;19.574;2022-11-06T07:49:51;22.40;;;20.00;;
35056;SDS011;21241;51.828;19.574;2022-11-06T07:52:19;19.30;;;15.20;;
35056;SDS011;21241;51.828;19.574;2022-11-06T07:54:47;17.00;;;14.60;;
35056;SDS011;21241;51.828;19.574;2022-11-06T07:57:15;18.20;;;16.20;;
35056;SDS011;21241;51.828;19.574;2022-11-06T07:59:42;17.90;;;14.60;;
35056;SDS011;21241;51.828;19.574;2022-11-06T08:02:10;18.70;;;15.20;;
35056;SDS011;21241;51.828;19.574;2022-11-06T08:04:42;14.80;;;11.70;;
35056;SDS011;21241;51.828;19.574;2022-11-06T08:07:09;14.30;;;9.40;;
35056;SDS011;21241;51.828;19.574;2022-11-06T08:09:37;12.70;;;9.30;;
35056;SDS011;21241;51.828;19.574;2022-11-06T08:12:05;11.30;;;9.20;;
35056;SDS011;21241;51.828;19.574;2022-11-06T08:14:34;13.20;;;8.80;;
35056;SDS011;21241;51.828;19.574;2022-11-06T08:17:07;11.60;;;8.10;;
35056;SDS011;21241;51.828;19.574;2022-11-06T08:19:35;10.90;;;7.80;;
35056;SDS011;21241;51.828;19.574;2022-11-06T08:22:03;9.10;;;6.30;;
35056;SDS011;21241;51.828;19.574;2022-11-06T08:24:30;9.30;;;6.40;;
35056;SDS011;21241;51.828;19.574;2022-11-06T08:26:58;7.60;;;5.30;;
35056;SDS011;21241;51.828;19.574;2022-11-06T08:29:26;10.50;;;5.70;;
35056;SDS011;21241;51.828;19.574;2022-11-06T08:31:54;9.30;;;5.40;;
35056;SDS011;21241;51.828;19.574;2022-11-06T08:34:21;9.60;;;6.20;;
35056;SDS011;21241;51.828;19.574;2022-11-06T08:36:49;9.40;;;6.00;;
35056;SDS011;21241;51.828;19.574;2022-11-06T08:39:18;11.80;;;6.60;;
35056;SDS011;21241;51.828;19.574;2022-11-06T08:41:46;7.90;;;5.90;;
35056;SDS011;21241;51.828;19.574;2022-11-06T08:44:13;8.00;;;6.50;;
35056;SDS011;21241;51.828;19.574;2022-11-06T08:46:41;11.00;;;6.10;;
35056;SDS011;21241;51.828;19.574;2022-11-06T08:49:15;9.00;;;6.10;;
35056;SDS011;21241;51.828;19.574;2022-11-06T08:51:43;8.50;;;5.30;;
35056;SDS011;21241;51.828;19.574;2022-11-06T08:54:11;7.10;;;5.20;;
35056;SDS011;21241;51.828;19.574;2022-11-06T08:56:38;8.30;;;5.20;;
35056;SDS011;21241;51.828;19.574;2022-11-06T08:59:06;9.20;;;7.20;;
35056;SDS011;21241;51.828;19.574;2022-11-06T09:01:34;11.10;;;7.20;;
35056;SDS011;21241;51.828;19.574;2022-11-06T09:04:02;9.00;;;6.80;;
35056;SDS011;21241;51.828;19.574;2022-11-06T09:06:30;8.80;;;6.40;;
35056;SDS011;21241;51.828;19.574;2022-11-06T09:08:57;9.80;;;6.20;;
35056;SDS011;21241;51.828;19.574;2022-11-06T09:11:25;7.50;;;6.10;;
35056;SDS011;21241;51.828;19.574;2022-11-06T09:13:53;7.00;;;5.80;;
35056;SDS011;21241;51.828;19.574;2022-11-06T09:16:21;9.00;;;6.20;;
35056;SDS011;21241;51.828;19.574;2022-11-06T09:18:48;9.20;;;6.60;;
35056;SDS011;21241;51.828;19.574;2022-11-06T09:21:16;10.00;;;6.70;;
35056;SDS011;21241;51.828;19.574;2022-11-06T09:23:44;7.90;;;6.30;;
35056;SDS011;21241;51.828;19.574;2022-11-06T09:26:13;11.20;;;8.00;;
35056;SDS011;21241;51.828;19.574;2022-11-06T09:28:41;10.10;;;7.20;;
35056;SDS011;21241;51.828;19.574;2022-11-06T09:31:09;10.90;;;6.90;;
35056;SDS011;21241;51.828;19.574;2022-11-06T09:33:37;9.10;;;5.80;;
35056;SDS011;21241;51.828;19.574;2022-11-06T09:36:04;8.50;;;5.60;;
35056;SDS011;21241;51.828;19.574;2022-11-06T09:38:32;8.00;;;5.30;;
35056;SDS011;21241;51.828;19.574;2022-11-06T09:41:01;9.90;;;5.80;;
35056;SDS011;21241;51.828;19.574;2022-11-06T09:46:26;8.30;;;5.20;;
35056;SDS011;21241;51.828;19.574;2022-11-06T09:51:40;8.00;;;4.70;;
35056;SDS011;21241;51.828;19.574;2022-11-06T09:54:20;6.20;;;4.20;;
35056;SDS011;21241;51.828;19.574;2022-11-06T09:56:52;5.90;;;3.70;;
35056;SDS011;21241;51.828;19.574;2022-11-06T09:59:22;7.40;;;4.30;;
35056;SDS011;21241;51.828;19.574;2022-11-06T10:01:51;7.60;;;3.90;;
35056;SDS011;21241;51.828;19.574;2022-11-06T10:04:31;6.10;;;3.80;;
35056;SDS011;21241;51.828;19.574;2022-11-06T10:07:24;7.30;;;4.80;;
35056;SDS011;21241;51.828;19.574;2022-11-06T10:09:54;7.30;;;4.40;;
35056;SDS011;21241;51.828;19.574;2022-11-06T10:12:28;9.80;;;6.10;;
35056;SDS011;21241;51.828;19.574;2022-11-06T10:18:29;9.60;;;6.50;;
35056;SDS011;21241;51.828;19.574;2022-11-06T10:23:46;8.20;;;6.30;;
35056;SDS011;21241;51.828;19.574;2022-11-06T10:26:17;10.50;;;6.70;;
35056;SDS011;21241;51.828;19.574;2022-11-06T10:34:36;6.80;;;4.20;;
35056;SDS011;21241;51.828;19.574;2022-11-06T10:37:12;9.30;;;5.00;;
35056;SDS011;21241;51.828;19.574;2022-11-06T10:39:43;6.30;;;4.20;;
35056;SDS011;21241;51.828;19.574;2022-11-06T10:42:18;7.50;;;4.30;;
35056;SDS011;21241;51.828;19.574;2022-11-06T10:44:48;9.80;;;5.00;;
35056;SDS011;21241;51.828;19.574;2022-11-06T10:47:22;7.10;;;5.40;;
35056;SDS011;21241;51.828;19.574;2022-11-06T10:49:54;6.90;;;5.20;;
35056;SDS011;21241;51.828;19.574;2022-11-06T10:58:16;7.80;;;5.10;;
35056;SDS011;21241;51.828;19.574;2022-11-06T11:00:45;7.10;;;5.40;;
35056;SDS011;21241;51.828;19.574;2022-11-06T11:03:34;10.50;;;6.80;;
35056;SDS011;21241;51.828;19.574;2022-11-06T11:06:02;8.10;;;5.90;;
35056;SDS011;21241;51.828;19.574;2022-11-06T11:08:32;8.60;;;6.30;;
35056;SDS011;21241;51.828;19.574;2022-11-06T11:11:05;9.30;;;6.50;;
35056;SDS011;21241;51.828;19.574;2022-11-06T11:13:43;7.40;;;4.30;;
35056;SDS011;21241;51.828;19.574;2022-11-06T11:16:16;6.80;;;3.90;;
35056;SDS011;21241;51.828;19.574;2022-11-06T11:18:51;6.90;;;4.50;;
35056;SDS011;21241;51.828;19.574;2022-11-06T11:21:25;8.90;;;4.70;;
35056;SDS011;21241;51.828;19.574;2022-11-06T11:26:35;7.70;;;5.70;;
35056;SDS011;21241;51.828;19.574;2022-11-06T11:31:44;10.20;;;6.30;;
35056;SDS011;21241;51.828;19.574;2022-11-06T11:34:14;8.70;;;6.40;;
35056;SDS011;21241;51.828;19.574;2022-11-06T11:36:55;8.60;;;6.40;;
35056;SDS011;21241;51.828;19.574;2022-11-06T11:39:29;8.70;;;6.50;;
35056;SDS011;21241;51.828;19.574;2022-11-06T11:42:14;7.80;;;6.30;;
35056;SDS011;21241;51.828;19.574;2022-11-06T11:44:44;7.60;;;6.50;;
35056;SDS011;21241;51.828;19.574;2022-11-06T11:47:21;10.60;;;8.20;;
35056;SDS011;21241;51.828;19.574;2022-11-06T11:49:50;11.10;;;7.00;;
35056;SDS011;21241;51.828;19.574;2022-11-06T11:52:18;9.70;;;7.30;;
35056;SDS011;21241;51.828;19.574;2022-11-06T11:54:49;9.30;;;6.80;;
35056;SDS011;21241;51.828;19.574;2022-11-06T11:57:18;9.00;;;6.50;;
35056;SDS011;21241;51.828;19.574;2022-11-06T11:59:53;10.90;;;8.30;;
35056;SDS011;21241;51.828;19.574;2022-11-06T12:02:24;10.20;;;9.10;;
35056;SDS011;21241;51.828;19.574;2022-11-06T12:04:57;10.40;;;9.20;;
35056;SDS011;21241;51.828;19.574;2022-11-06T12:10:01;10.40;;;7.80;;
35056;SDS011;21241;51.828;19.574;2022-11-06T12:12:33;8.00;;;6.90;;
35056;SDS011;21241;51.828;19.574;2022-11-06T12:17:34;13.20;;;9.40;;
35056;SDS011;21241;51.828;19.574;2022-11-06T12:20:04;13.10;;;8.40;;
35056;SDS011;21241;51.828;19.574;2022-11-06T12:22:44;19.40;;;9.90;;
35056;SDS011;21241;51.828;19.574;2022-11-06T12:25:19;10.10;;;7.20;;
35056;SDS011;21241;51.828;19.574;2022-11-06T12:27:51;8.40;;;6.10;;
35056;SDS011;21241;51.828;19.574;2022-11-06T12:30:21;9.80;;;5.90;;
35056;SDS011;21241;51.828;19.574;2022-11-06T12:33:00;9.00;;;5.10;;
35056;SDS011;21241;51.828;19.574;2022-11-06T12:35:39;6.10;;;4.40;;
35056;SDS011;21241;51.828;19.574;2022-11-06T12:38:14;7.20;;;5.10;;
35056;SDS011;21241;51.828;19.574;2022-11-06T12:40:54;7.30;;;4.80;;
35056;SDS011;21241;51.828;19.574;2022-11-06T12:43:41;8.70;;;4.50;;
35056;SDS011;21241;51.828;19.574;2022-11-06T12:48:49;7.50;;;4.30;;
35056;SDS011;21241;51.828;19.574;2022-11-06T12:51:32;8.40;;;4.50;;
35056;SDS011;21241;51.828;19.574;2022-11-06T12:54:11;7.70;;;3.50;;
35056;SDS011;21241;51.828;19.574;2022-11-06T12:57:15;6.80;;;3.50;;
35056;SDS011;21241;51.828;19.574;2022-11-06T13:05:46;6.20;;;3.60;;
35056;SDS011;21241;51.828;19.574;2022-11-06T13:08:30;6.20;;;3.20;;
35056;SDS011;21241;51.828;19.574;2022-11-06T13:14:07;6.00;;;2.40;;
35056;SDS011;21241;51.828;19.574;2022-11-06T13:23:25;7.50;;;3.40;;
35056;SDS011;21241;51.828;19.574;2022-11-06T13:30:04;7.40;;;6.10;;
35056;SDS011;21241;51.828;19.574;2022-11-06T13:32:43;7.00;;;4.10;;
35056;SDS011;21241;51.828;19.574;2022-11-06T13:35:20;6.60;;;3.30;;
35056;SDS011;21241;51.828;19.574;2022-11-06T13:37:48;5.00;;;3.40;;
35056;SDS011;21241;51.828;19.574;2022-11-06T13:40:32;8.50;;;4.00;;
35056;SDS011;21241;51.828;19.574;2022-11-06T13:43:18;7.00;;;3.80;;
35056;SDS011;21241;51.828;19.574;2022-11-06T13:54:25;10.60;;;5.10;;
35056;SDS011;21241;51.828;19.574;2022-11-06T13:57:05;7.70;;;4.30;;
35056;SDS011;21241;51.828;19.574;2022-11-06T14:07:41;8.30;;;6.30;;
35056;SDS011;21241;51.828;19.574;2022-11-06T14:10:16;7.50;;;4.90;;
35056;SDS011;21241;51.828;19.574;2022-11-06T14:13:01;11.10;;;5.30;;
35056;SDS011;21241;51.828;19.574;2022-11-06T14:15:31;6.10;;;4.60;;
35056;SDS011;21241;51.828;19.574;2022-11-06T14:18:01;7.60;;;4.40;;
35056;SDS011;21241;51.828;19.574;2022-11-06T14:20:32;6.20;;;4.00;;
35056;SDS011;21241;51.828;19.574;2022-11-06T14:26:01;8.90;;;7.60;;
35056;SDS011;21241;51.828;19.574;2022-11-06T14:28:38;7.70;;;5.70;;
35056;SDS011;21241;51.828;19.574;2022-11-06T14:31:07;12.10;;;8.30;;
35056;SDS011;21241;51.828;19.574;2022-11-06T14:36:13;13.80;;;5.20;;
35056;SDS011;21241;51.828;19.574;2022-11-06T14:39:00;7.90;;;6.10;;
35056;SDS011;21241;51.828;19.574;2022-11-06T14:44:02;6.20;;;3.70;;
35056;SDS011;21241;51.828;19.574;2022-11-06T14:46:32;8.60;;;4.50;;
35056;SDS011;21241;51.828;19.574;2022-11-06T14:49:19;14.70;;;10.70;;
35056;SDS011;21241;51.828;19.574;2022-11-06T14:52:05;12.70;;;10.80;;
35056;SDS011;21241;51.828;19.574;2022-11-06T14:54:35;9.50;;;6.20;;
35056;SDS011;21241;51.828;19.574;2022-11-06T14:57:07;7.60;;;4.60;;
35056;SDS011;21241;51.828;19.574;2022-11-06T14:59:37;10.80;;;7.30;;
35056;SDS011;21241;51.828;19.574;2022-11-06T15:04:47;6.10;;;5.50;;
35056;SDS011;21241;51.828;19.574;2022-11-06T15:07:26;9.90;;;6.60;;
35056;SDS011;21241;51.828;19.574;2022-11-06T15:13:09;9.10;;;7.70;;
35056;SDS011;21241;51.828;19.574;2022-11-06T15:15:39;12.20;;;9.70;;
35056;SDS011;21241;51.828;19.574;2022-11-06T15:18:11;18.30;;;13.90;;
35056;SDS011;21241;51.828;19.574;2022-11-06T15:20:41;27.70;;;20.00;;
35056;SDS011;21241;51.828;19.574;2022-11-06T15:23:13;28.60;;;24.70;;
35056;SDS011;21241;51.828;19.574;2022-11-06T15:25:47;26.60;;;20.40;;
35056;SDS011;21241;51.828;19.574;2022-11-06T15:28:19;18.70;;;14.20;;
35056;SDS011;21241;51.828;19.574;2022-11-06T15:30:58;11.40;;;8.50;;
35056;SDS011;21241;51.828;19.574;2022-11-06T15:33:44;13.30;;;8.70;;
35056;SDS011;21241;51.828;19.574;2022-11-06T15:36:21;11.80;;;9.10;;
35056;SDS011;21241;51.828;19.574;2022-11-06T15:38:50;11.90;;;8.90;;
35056;SDS011;21241;51.828;19.574;2022-11-06T15:41:19;13.70;;;12.00;;
35056;SDS011;21241;51.828;19.574;2022-11-06T15:43:49;15.20;;;11.50;;
35056;SDS011;21241;51.828;19.574;2022-11-06T15:46:20;19.50;;;11.10;;
35056;SDS011;21241;51.828;19.574;2022-11-06T15:49:06;14.60;;;11.70;;
35056;SDS011;21241;51.828;19.574;2022-11-06T15:51:37;14.30;;;11.20;;
35056;SDS011;21241;51.828;19.574;2022-11-06T15:54:10;12.40;;;10.20;;
35056;SDS011;21241;51.828;19.574;2022-11-06T15:56:40;14.40;;;10.80;;
35056;SDS011;21241;51.828;19.574;2022-11-06T15:59:10;17.00;;;12.70;;
35056;SDS011;21241;51.828;19.574;2022-11-06T16:01:40;15.20;;;12.40;;
35056;SDS011;21241;51.828;19.574;2022-11-06T16:04:10;17.60;;;14.70;;
35056;SDS011;21241;51.828;19.574;2022-11-06T16:06:42;21.20;;;17.90;;
35056;SDS011;21241;51.828;19.574;2022-11-06T16:09:15;25.50;;;21.00;;
35056;SDS011;21241;51.828;19.574;2022-11-06T16:11:45;32.40;;;26.10;;
35056;SDS011;21241;51.828;19.574;2022-11-06T16:14:15;36.00;;;31.60;;
35056;SDS011;21241;51.828;19.574;2022-11-06T16:16:44;44.10;;;36.40;;
35056;SDS011;21241;51.828;19.574;2022-11-06T16:21:59;50.80;;;44.90;;
35056;SDS011;21241;51.828;19.574;2022-11-06T16:24:39;45.90;;;41.10;;
35056;SDS011;21241;51.828;19.574;2022-11-06T16:27:09;41.70;;;37.10;;
35056;SDS011;21241;51.828;19.574;2022-11-06T16:29:37;42.80;;;37.30;;
35056;SDS011;21241;51.828;19.574;2022-11-06T16:32:08;39.20;;;35.00;;
35056;SDS011;21241;51.828;19.574;2022-11-06T16:34:42;37.60;;;33.60;;
35056;SDS011;21241;51.828;19.574;2022-11-06T16:39:49;36.00;;;32.30;;
35056;SDS011;21241;51.828;19.574;2022-11-06T16:42:37;38.50;;;34.70;;
35056;SDS011;21241;51.828;19.574;2022-11-06T16:45:20;33.50;;;30.10;;
35056;SDS011;21241;51.828;19.574;2022-11-06T16:53:20;36.60;;;33.00;;
35056;SDS011;21241;51.828;19.574;2022-11-06T16:55:57;39.50;;;35.30;;
35056;SDS011;21241;51.828;19.574;2022-11-06T16:58:27;39.20;;;35.30;;
35056;SDS011;21241;51.828;19.574;2022-11-06T17:00:57;37.80;;;34.10;;
35056;SDS011;21241;51.828;19.574;2022-11-06T17:03:34;40.20;;;35.00;;